Time;durP1;ratioP1;P1;durP2;ratioP2;P2;SDS_P1;SDS_P2;PMS_P1;PMS_P2;Temp;Humidity;BMP_temperature;BMP_pressure;BME280_temperature;BME280_humidity;BME280_pressure;Samples;Min_cycle;Max_cycle;Signal;HPM_P1;HPM_P2
2023/05/29 00:00:54;;;;;;;1655.60;593.22;;;10.90;99.90;;;;;;5032128;28;20045;-83
2023/05/29 00:03:20;;;;;;;1999.90;999.90;;;10.80;99.90;;;;;;5012967;28;20927;-83
2023/05/29 00:05:46;;;;;;;1999.90;999.90;;;10.80;99.90;;;;;;4997431;28;20446;-83
2023/05/29 00:08:11;;;;;;;1999.90;999.90;;;10.70;99.90;;;;;;5030787;28;20048;-83
2023/05/29 00:10:37;;;;;;;1999.90;999.90;;;10.80;99.90;;;;;;5031343;28;20076;-83
2023/05/29 00:13:03;;;;;;;1999.90;999.90;;;11.50;99.90;;;;;;5012026;28;20049;-83
2023/05/29 00:15:30;;;;;;;1352.90;537.25;;;10.70;99.90;;;;;;5014517;28;20045;-82
2023/05/29 00:17:55;;;;;;;1999.90;999.90;;;10.70;99.90;;;;;;4997914;28;20489;-83
2023/05/29 00:20:21;;;;;;;1883.10;781.95;;;10.70;99.90;;;;;;5014197;28;20037;-82
2023/05/29 00:22:47;;;;;;;1999.90;999.90;;;10.70;99.90;;;;;;4979557;28;20474;-82
2023/05/29 00:25:14;;;;;;;1999.90;999.90;;;10.60;99.90;;;;;;5012912;28;20053;-84
2023/05/29 00:27:41;;;;;;;1999.90;999.90;;;10.60;99.90;;;;;;5034729;28;20045;-82
2023/05/29 00:30:08;;;;;;;1481.10;552.30;;;10.70;99.90;;;;;;5015990;28;20045;-83
2023/05/29 00:32:33;;;;;;;1779.38;597.92;;;10.60;99.90;;;;;;5011525;28;20478;-83
2023/05/29 00:34:59;;;;;;;1885.95;621.03;;;10.50;99.90;;;;;;5017239;28;20068;-83
2023/05/29 00:37:25;;;;;;;1999.90;999.90;;;10.50;99.90;;;;;;5000489;28;20052;-84
2023/05/29 00:39:51;;;;;;;1915.03;271.65;;;10.50;99.90;;;;;;5017920;28;20111;-83
2023/05/29 00:42:17;;;;;;;1823.07;797.30;;;10.70;99.90;;;;;;5016870;28;20076;-84
2023/05/29 00:44:43;;;;;;;1999.90;281.45;;;10.50;99.90;;;;;;4997827;28;20057;-83
2023/05/29 00:47:08;;;;;;;1457.28;176.07;;;10.50;99.90;;;;;;5006762;28;20057;-84
2023/05/29 00:49:36;;;;;;;1999.90;612.85;;;10.40;99.90;;;;;;5017717;28;20049;-83
2023/05/29 00:52:03;;;;;;;1695.10;221.20;;;10.40;99.90;;;;;;5016666;28;20046;-83
2023/05/29 00:54:30;;;;;;;1999.90;261.30;;;10.40;99.90;;;;;;5000657;28;20481;-84
2023/05/29 00:57:01;;;;;;;1874.00;270.45;;;10.30;99.90;;;;;;5029576;28;20099;-84
2023/05/29 00:59:31;;;;;;;1794.28;245.38;;;10.30;99.90;;;;;;4999292;28;21714;-83
2023/05/29 01:01:58;;;;;;;1920.45;796.97;;;10.20;99.90;;;;;;5018348;28;20057;-83
2023/05/29 01:04:25;;;;;;;1862.35;421.00;;;10.30;99.90;;;;;;5021851;28;20494;-83
2023/05/29 01:06:51;;;;;;;1999.90;315.58;;;10.20;99.90;;;;;;5017896;28;20041;-83
2023/05/29 01:09:17;;;;;;;1784.57;233.95;;;10.20;99.90;;;;;;5000151;28;20045;-82
2023/05/29 01:11:43;;;;;;;1862.78;590.03;;;10.20;99.90;;;;;;5016526;28;20098;-83
2023/05/29 01:14:16;;;;;;;1999.90;999.90;;;10.20;99.90;;;;;;5000416;28;20181;-82
2023/05/29 01:16:51;;;;;;;1999.90;999.90;;;10.10;99.90;;;;;;5033832;28;20458;-82
2023/05/29 01:20:05;;;;;;;1611.78;199.45;;;10.10;99.90;;;;;;5016780;28;20044;-82
2023/05/29 01:23:09;;;;;;;1833.88;792.60;;;10.00;99.90;;;;;;4973413;28;20053;-82
2023/05/29 01:26:01;;;;;;;1999.90;649.15;;;10.00;99.90;;;;;;5014930;28;20448;-82
2023/05/29 01:28:33;;;;;;;1999.90;636.03;;;10.00;99.90;;;;;;5014647;28;20428;-83
2023/05/29 01:31:00;;;;;;;1999.90;641.10;;;10.00;99.90;;;;;;4998395;28;20077;-83
2023/05/29 01:33:27;;;;;;;1999.90;343.08;;;10.00;99.90;;;;;;4997284;28;20046;-84
2023/05/29 01:35:53;;;;;;;1828.32;607.25;;;10.00;99.90;;;;;;5016144;28;20045;-85
2023/05/29 01:38:18;;;;;;;1764.63;204.07;;;10.00;99.90;;;;;;5032190;28;20095;-84
2023/05/29 01:40:44;;;;;;;1985.60;457.15;;;10.00;99.90;;;;;;5033179;28;20492;-84
2023/05/29 01:43:10;;;;;;;1999.90;636.88;;;9.90;99.90;;;;;;5015996;28;20044;-84
2023/05/29 01:45:36;;;;;;;1854.32;227.27;;;11.30;99.90;;;;;;5014575;28;20045;-86
2023/05/29 01:48:02;;;;;;;1890.53;210.90;;;9.90;99.90;;;;;;5015715;28;20088;-84
2023/05/29 01:50:29;;;;;;;1988.53;289.38;;;9.80;99.90;;;;;;5033829;28;20148;-86
2023/05/29 01:52:54;;;;;;;1999.90;999.90;;;9.80;99.90;;;;;;5000806;28;20041;-86
2023/05/29 01:55:20;;;;;;;1999.90;287.08;;;9.80;99.90;;;;;;5032148;28;20064;-87
2023/05/29 01:57:47;;;;;;;1999.90;261.80;;;9.80;99.90;;;;;;5015177;28;20041;-86
2023/05/29 02:00:16;;;;;;;1989.23;513.97;;;9.80;99.90;;;;;;4998399;28;20259;-87
2023/05/29 02:02:42;;;;;;;1999.90;999.90;;;9.80;99.90;;;;;;5016537;28;20044;-88
2023/05/29 02:05:09;;;;;;;1851.25;216.43;;;10.00;99.90;;;;;;5015612;28;20041;-86
2023/05/29 02:07:36;;;;;;;1931.78;284.35;;;9.70;99.90;;;;;;5011208;28;20075;-84
2023/05/29 02:10:04;;;;;;;1999.90;674.70;;;9.70;99.90;;;;;;5031809;28;20451;-83
2023/05/29 02:12:29;;;;;;;1999.90;642.85;;;9.70;99.90;;;;;;5037374;28;20041;-83
2023/05/29 02:14:56;;;;;;;1999.90;348.48;;;9.70;99.90;;;;;;5032789;28;20051;-83
2023/05/29 02:17:22;;;;;;;1999.90;679.45;;;9.60;99.90;;;;;;5013977;28;20128;-82
2023/05/29 02:19:48;;;;;;;1999.90;309.70;;;9.60;99.90;;;;;;5033285;28;20530;-81
2023/05/29 02:22:13;;;;;;;1928.68;239.55;;;9.60;99.90;;;;;;5033452;28;20397;-80
2023/05/29 02:24:39;;;;;;;1999.90;999.90;;;9.60;99.90;;;;;;5016015;28;20541;-83
2023/05/29 02:27:05;;;;;;;1661.00;206.05;;;9.50;99.90;;;;;;5032660;28;20033;-84
2023/05/29 02:29:30;;;;;;;1999.90;305.45;;;10.00;99.90;;;;;;5013952;28;20052;-83
2023/05/29 02:31:56;;;;;;;1999.90;327.60;;;9.50;99.90;;;;;;5024319;28;20038;-82
2023/05/29 02:34:24;;;;;;;1999.90;252.07;;;9.40;99.90;;;;;;5001312;28;20041;-83
2023/05/29 02:36:54;;;;;;;1999.90;656.20;;;9.50;99.90;;;;;;5014165;28;20048;-83
2023/05/29 02:39:20;;;;;;;1999.90;547.70;;;9.60;99.90;;;;;;5015684;28;20049;-83
2023/05/29 02:41:46;;;;;;;1999.90;633.17;;;9.40;99.90;;;;;;5014746;28;20045;-84
2023/05/29 02:44:12;;;;;;;1999.90;664.30;;;9.50;99.90;;;;;;4983499;28;20083;-83
2023/05/29 02:46:37;;;;;;;1883.90;642.35;;;9.40;99.90;;;;;;5012724;28;20064;-83
2023/05/29 02:49:03;;;;;;;1999.90;630.25;;;9.40;99.90;;;;;;5014125;28;20049;-83
2023/05/29 02:51:29;;;;;;;1999.90;658.20;;;9.40;99.90;;;;;;5014020;28;20051;-83
2023/05/29 02:53:55;;;;;;;1999.90;536.92;;;9.30;99.90;;;;;;5011534;28;20052;-82
2023/05/29 02:56:23;;;;;;;1999.90;317.23;;;9.30;99.90;;;;;;5012595;28;20365;-82
2023/05/29 02:58:52;;;;;;;1999.90;999.90;;;9.30;99.90;;;;;;5015626;28;20520;-82
2023/05/29 03:01:18;;;;;;;1999.90;815.50;;;9.30;99.90;;;;;;4999196;28;20129;-82
2023/05/29 03:03:44;;;;;;;1966.53;278.02;;;9.30;99.90;;;;;;5012100;28;20207;-83
2023/05/29 03:06:12;;;;;;;1999.90;310.17;;;9.30;99.90;;;;;;5014005;28;20069;-82
2023/05/29 03:08:41;;;;;;;1999.90;591.67;;;9.30;99.90;;;;;;4997788;28;20107;-82
2023/05/29 03:11:13;;;;;;;1999.90;561.10;;;9.30;99.90;;;;;;5012270;28;20144;-83
2023/05/29 03:13:39;;;;;;;1999.90;634.88;;;9.30;99.90;;;;;;5031094;28;20046;-82
2023/05/29 03:16:05;;;;;;;1999.90;448.25;;;9.30;99.90;;;;;;5014389;28;20045;-82
2023/05/29 03:18:30;;;;;;;1999.90;820.92;;;9.30;99.90;;;;;;4998003;28;20115;-82
2023/05/29 03:20:56;;;;;;;1999.90;440.02;;;9.20;99.90;;;;;;5032196;28;20042;-83
2023/05/29 03:23:22;;;;;;;1973.63;251.88;;;9.30;99.90;;;;;;5011632;28;20041;-84
2023/05/29 03:25:48;;;;;;;1999.90;283.00;;;9.20;99.90;;;;;;4997888;28;20056;-83
2023/05/29 03:28:14;;;;;;;1999.90;338.10;;;9.50;99.90;;;;;;5014732;28;20107;-83
2023/05/29 03:30:39;;;;;;;1999.90;341.67;;;9.20;99.90;;;;;;5031017;28;20045;-83
2023/05/29 03:33:05;;;;;;;1999.90;999.90;;;9.20;99.90;;;;;;5013794;28;20049;-83
2023/05/29 03:35:31;;;;;;;1999.90;999.90;;;9.20;99.90;;;;;;5031946;28;20041;-83
2023/05/29 03:37:57;;;;;;;1999.90;999.90;;;9.10;99.90;;;;;;4996782;28;20500;-84
2023/05/29 03:40:23;;;;;;;1999.90;999.90;;;9.10;99.90;;;;;;4996178;28;20047;-84
2023/05/29 03:42:48;;;;;;;1999.90;999.90;;;9.10;99.90;;;;;;4996581;28;20180;-84
2023/05/29 03:45:14;;;;;;;1999.90;999.90;;;9.10;99.90;;;;;;4997920;28;20053;-83
2023/05/29 03:47:40;;;;;;;1466.05;232.98;;;9.10;99.90;;;;;;5012902;28;20490;-83
2023/05/29 03:50:06;;;;;;;1999.90;642.17;;;9.10;99.90;;;;;;5013787;28;20119;-83
2023/05/29 03:52:32;;;;;;;1999.90;999.90;;;9.10;99.90;;;;;;5014207;28;20046;-83
2023/05/29 03:54:57;;;;;;;1999.90;999.90;;;9.10;99.90;;;;;;5012266;28;20518;-83
2023/05/29 03:57:23;;;;;;;1999.90;999.90;;;9.10;99.90;;;;;;5030991;28;20398;-83
2023/05/29 03:59:49;;;;;;;1999.90;999.90;;;9.20;99.90;;;;;;5013350;28;20045;-83
2023/05/29 04:02:14;;;;;;;1999.90;999.90;;;9.10;99.90;;;;;;5018584;28;20085;-83
2023/05/29 04:04:40;;;;;;;1999.90;343.65;;;9.10;99.90;;;;;;4999256;28;20045;-82
2023/05/29 04:07:06;;;;;;;1999.90;806.45;;;9.30;99.90;;;;;;5018225;28;20053;-83
2023/05/29 04:09:33;;;;;;;1999.90;501.92;;;9.20;99.90;;;;;;5017490;28;20053;-83
2023/05/29 04:12:02;;;;;;;1999.90;665.38;;;9.20;99.90;;;;;;5017538;28;20501;-83
2023/05/29 04:14:28;;;;;;;1999.90;703.97;;;9.40;99.90;;;;;;5015503;28;20363;-84
2023/05/29 04:16:54;;;;;;;1999.90;812.17;;;9.10;99.90;;;;;;4996146;28;20437;-83
2023/05/29 04:19:20;;;;;;;1999.90;307.05;;;9.20;99.90;;;;;;5034617;28;20045;-83
2023/05/29 04:21:47;;;;;;;1946.07;640.33;;;9.10;99.90;;;;;;5006135;28;20127;-83
2023/05/29 04:24:14;;;;;;;1999.90;343.00;;;9.20;99.90;;;;;;5017562;28;20049;-83
2023/05/29 04:26:41;;;;;;;1999.90;645.85;;;9.20;99.90;;;;;;5015842;28;20401;-82
2023/05/29 04:29:12;;;;;;;1999.90;655.08;;;9.20;99.90;;;;;;4985537;28;20053;-83
2023/05/29 04:31:38;;;;;;;1999.90;999.90;;;9.20;99.90;;;;;;5002318;28;20041;-83
2023/05/29 04:34:07;;;;;;;1999.90;507.75;;;9.20;99.90;;;;;;5016532;28;20387;-82
2023/05/29 04:36:33;;;;;;;1999.90;999.90;;;9.20;99.90;;;;;;5032502;28;20042;-84
2023/05/29 04:38:59;;;;;;;1999.90;999.90;;;9.30;99.90;;;;;;5015402;28;20060;-82
2023/05/29 04:41:29;;;;;;;1999.90;536.30;;;9.30;99.90;;;;;;5016458;28;20080;-82
2023/05/29 04:43:58;;;;;;;1999.90;286.13;;;9.30;99.90;;;;;;5018091;28;20085;-83
2023/05/29 04:46:24;;;;;;;1999.90;999.90;;;9.30;99.90;;;;;;5035057;28;20401;-82
2023/05/29 04:48:53;;;;;;;1999.90;465.77;;;9.50;99.90;;;;;;5015995;28;20308;-83
2023/05/29 04:51:22;;;;;;;1999.90;999.90;;;9.40;99.90;;;;;;5016699;28;20065;-83
2023/05/29 04:53:49;;;;;;;1999.90;999.90;;;9.40;99.90;;;;;;5016390;28;20155;-83
2023/05/29 04:56:15;;;;;;;1999.90;759.87;;;9.50;99.90;;;;;;4999252;28;20065;-83
2023/05/29 04:58:42;;;;;;;1999.90;663.05;;;9.50;99.90;;;;;;5017614;28;20042;-83
2023/05/29 05:01:09;;;;;;;1999.90;999.90;;;9.60;99.90;;;;;;4998621;28;20053;-83
2023/05/29 05:03:35;;;;;;;1999.90;999.90;;;9.60;99.90;;;;;;5009092;28;20448;-83
2023/05/29 05:06:06;;;;;;;1842.65;580.58;;;9.70;99.90;;;;;;4984632;28;20477;-82
2023/05/29 05:08:32;;;;;;;1973.07;809.88;;;9.80;99.90;;;;;;5034295;28;20054;-82
2023/05/29 05:10:59;;;;;;;1923.70;264.08;;;9.90;99.90;;;;;;5004052;28;20060;-83
2023/05/29 05:13:25;;;;;;;1994.78;594.75;;;10.10;99.90;;;;;;5034176;28;20112;-83
2023/05/29 05:15:51;;;;;;;1999.90;266.40;;;10.00;99.90;;;;;;5015273;28;20512;-83
2023/05/29 05:18:17;;;;;;;1999.90;716.33;;;10.10;99.90;;;;;;5044325;28;20053;-83
2023/05/29 05:20:43;;;;;;;1999.90;999.90;;;10.20;99.90;;;;;;5018119;28;20324;-82
2023/05/29 05:23:10;;;;;;;1999.90;999.90;;;10.20;99.90;;;;;;5034011;28;20047;-83
2023/05/29 05:25:36;;;;;;;1999.90;839.53;;;10.30;99.90;;;;;;4996513;28;20490;-84
2023/05/29 05:28:05;;;;;;;1999.90;423.23;;;10.30;99.90;;;;;;5033400;28;20045;-82
2023/05/29 05:30:31;;;;;;;1999.90;547.08;;;10.40;99.90;;;;;;5016335;28;20402;-84
2023/05/29 05:32:58;;;;;;;1999.90;387.08;;;10.50;99.90;;;;;;5019590;28;20053;-84
2023/05/29 05:35:24;;;;;;;1999.90;483.17;;;10.50;99.90;;;;;;5015336;28;20486;-84
2023/05/29 05:37:50;;;;;;;1999.90;329.48;;;10.60;99.90;;;;;;5014979;28;20049;-84
2023/05/29 05:40:15;;;;;;;1999.90;668.00;;;10.70;99.90;;;;;;5016374;28;20128;-84
2023/05/29 05:42:41;;;;;;;1999.90;369.73;;;10.70;99.90;;;;;;5033502;28;20046;-84
2023/05/29 05:45:08;;;;;;;1999.90;265.90;;;10.80;99.90;;;;;;5015493;28;20057;-85
2023/05/29 05:47:36;;;;;;;1976.25;249.63;;;10.90;99.90;;;;;;5014234;28;20054;-82
2023/05/29 05:50:01;;;;;;;1946.95;811.17;;;11.00;99.90;;;;;;4990845;28;20045;-84
2023/05/29 05:52:30;;;;;;;1816.97;789.00;;;11.10;99.90;;;;;;4981677;28;20498;-83
2023/05/29 05:54:56;;;;;;;1999.90;999.90;;;11.10;99.90;;;;;;5012901;28;20056;-84
2023/05/29 05:57:22;;;;;;;1677.10;571.00;;;11.20;99.90;;;;;;5000303;28;20049;-84
2023/05/29 05:59:47;;;;;;;1648.25;196.57;;;11.30;99.90;;;;;;5013489;28;20045;-84
2023/05/29 06:02:13;;;;;;;1999.90;606.65;;;11.40;99.90;;;;;;4993019;28;20096;-84
2023/05/29 06:04:39;;;;;;;1999.90;611.97;;;11.50;99.90;;;;;;5013295;28;20041;-84
2023/05/29 06:07:06;;;;;;;1986.60;215.02;;;11.60;99.90;;;;;;5014542;28;20084;-84
2023/05/29 06:09:32;;;;;;;1999.90;411.63;;;11.60;99.90;;;;;;4997177;28;20056;-83
2023/05/29 06:11:58;;;;;;;1999.90;812.28;;;11.70;99.90;;;;;;5029625;28;20057;-84
2023/05/29 06:14:25;;;;;;;1917.55;581.90;;;11.80;99.90;;;;;;4998728;28;20072;-84
2023/05/29 06:16:51;;;;;;;1607.03;548.08;;;12.00;99.90;;;;;;5022942;28;20041;-84
2023/05/29 06:19:16;;;;;;;1784.13;781.50;;;12.10;99.90;;;;;;5022926;28;20056;-84
2023/05/29 06:21:42;;;;;;;1876.32;788.92;;;12.30;99.90;;;;;;5011382;28;20091;-85
2023/05/29 06:24:08;;;;;;;1818.63;789.17;;;12.40;99.90;;;;;;5012059;28;20049;-84
2023/05/29 06:26:34;;;;;;;1507.50;163.43;;;12.50;99.90;;;;;;5013348;28;20513;-83
2023/05/29 06:28:59;;;;;;;1999.90;521.17;;;12.50;99.90;;;;;;5012462;28;20053;-83
2023/05/29 06:31:26;;;;;;;1999.90;999.90;;;12.60;99.90;;;;;;4997347;28;20453;-84
2023/05/29 06:33:52;;;;;;;1776.55;790.15;;;12.60;99.90;;;;;;4982342;28;20053;-84
2023/05/29 06:36:18;;;;;;;1837.25;795.65;;;12.70;99.90;;;;;;4993531;28;20056;-84
2023/05/29 06:38:48;;;;;;;1536.13;220.77;;;12.70;99.90;;;;;;5027582;28;20482;-84
2023/05/29 06:41:13;;;;;;;1969.93;813.83;;;12.80;99.90;;;;;;4997883;28;20435;-83
2023/05/29 06:43:39;;;;;;;1999.90;999.90;;;12.90;99.90;;;;;;5016055;28;20085;-85
2023/05/29 06:46:05;;;;;;;1509.68;585.70;;;13.00;99.90;;;;;;5012681;28;20291;-84
2023/05/29 06:48:37;;;;;;;1999.90;999.90;;;13.10;99.90;;;;;;5030482;28;20049;-83
2023/05/29 06:51:08;;;;;;;1999.90;999.90;;;13.20;99.90;;;;;;5026201;28;20136;-81
2023/05/29 06:53:39;;;;;;;1999.90;999.90;;;13.20;99.90;;;;;;5025940;28;20055;-82
2023/05/29 06:56:06;;;;;;;1999.90;999.90;;;13.20;99.90;;;;;;4995475;28;20252;-82
2023/05/29 06:58:32;;;;;;;1999.90;999.90;;;13.20;99.90;;;;;;5029755;28;20045;-83
2023/05/29 07:00:59;;;;;;;1999.90;999.90;;;13.20;99.90;;;;;;5035970;28;20061;-83
2023/05/29 07:03:28;;;;;;;1999.90;999.90;;;13.20;99.90;;;;;;4998323;28;20053;-82
2023/05/29 07:05:55;;;;;;;1999.90;999.90;;;13.30;99.90;;;;;;5012039;28;20064;-83
2023/05/29 07:08:20;;;;;;;1999.90;999.90;;;13.40;99.90;;;;;;5009196;28;20041;-84
2023/05/29 07:10:48;;;;;;;1999.90;999.90;;;13.60;99.90;;;;;;5007981;28;20095;-83
2023/05/29 07:13:16;;;;;;;1999.90;999.90;;;13.60;99.90;;;;;;5014580;28;20068;-83
2023/05/29 07:15:42;;;;;;;1999.90;999.90;;;13.70;99.90;;;;;;5014094;28;20041;-82
2023/05/29 07:18:08;;;;;;;1999.90;999.90;;;13.80;99.90;;;;;;5011179;28;20049;-81
2023/05/29 07:20:33;;;;;;;1999.90;999.90;;;14.00;99.90;;;;;;5006533;28;20481;-83
2023/05/29 07:22:59;;;;;;;1999.90;999.90;;;14.10;99.90;;;;;;5028533;28;20045;-83
2023/05/29 07:25:26;;;;;;;1934.68;626.80;;;14.20;99.90;;;;;;5011891;28;20397;-83
2023/05/29 07:27:52;;;;;;;1999.90;999.90;;;14.30;99.90;;;;;;4997720;28;20049;-83
2023/05/29 07:30:18;;;;;;;1995.47;823.58;;;14.20;99.90;;;;;;5029483;28;20466;-84
2023/05/29 07:32:44;;;;;;;1999.90;999.90;;;14.30;99.90;;;;;;5008316;28;20045;-84
2023/05/29 07:35:09;;;;;;;1999.90;999.90;;;14.40;99.90;;;;;;5012484;28;20099;-84
2023/05/29 07:37:35;;;;;;;1999.90;999.90;;;14.40;99.90;;;;;;5012762;28;20077;-83
2023/05/29 07:40:01;;;;;;;1999.90;999.90;;;14.50;99.90;;;;;;5033498;28;20041;-84
2023/05/29 07:42:27;;;;;;;1999.90;999.90;;;14.60;99.90;;;;;;5010501;28;20060;-83
2023/05/29 07:44:53;;;;;;;1999.90;979.95;;;14.80;99.90;;;;;;4998146;28;20487;-84
2023/05/29 07:47:18;;;;;;;1999.90;999.90;;;15.10;99.90;;;;;;5013188;28;20417;-84
2023/05/29 07:49:44;;;;;;;1999.90;999.90;;;15.30;99.90;;;;;;5015160;28;20467;-84
2023/05/29 07:52:10;;;;;;;1999.90;999.90;;;15.30;99.90;;;;;;5013365;28;20565;-83
2023/05/29 07:54:36;;;;;;;1999.90;999.90;;;15.30;99.90;;;;;;5029718;28;20125;-83
2023/05/29 07:57:09;;;;;;;1999.90;999.90;;;15.40;99.90;;;;;;5011951;28;20094;-85
2023/05/29 07:59:41;;;;;;;1999.90;999.90;;;15.50;99.90;;;;;;4998470;28;20136;-84
2023/05/29 08:02:07;;;;;;;1999.90;999.90;;;15.60;99.90;;;;;;5011973;28;20052;-84
2023/05/29 08:04:33;;;;;;;1999.90;999.90;;;15.70;99.90;;;;;;5014677;28;20049;-83
2023/05/29 08:07:03;;;;;;;1999.90;999.90;;;15.80;99.90;;;;;;5031137;28;20398;-84
2023/05/29 08:09:29;;;;;;;1999.90;999.90;;;16.00;99.90;;;;;;5015834;28;20053;-83
2023/05/29 08:11:55;;;;;;;1999.90;918.25;;;16.00;99.90;;;;;;4994075;28;20060;-83
2023/05/29 08:14:21;;;;;;;1999.90;999.90;;;16.10;99.90;;;;;;5014599;28;20076;-84
2023/05/29 08:16:46;;;;;;;1999.90;999.90;;;16.20;99.90;;;;;;5014028;28;20132;-84
2023/05/29 08:19:12;;;;;;;1999.90;999.90;;;16.20;99.90;;;;;;5009452;28;20083;-84
2023/05/29 08:21:38;;;;;;;1999.90;999.90;;;16.40;99.90;;;;;;5010469;28;20120;-82
2023/05/29 08:24:06;;;;;;;1999.90;999.90;;;16.50;99.90;;;;;;5021129;28;20069;-85
2023/05/29 08:26:33;;;;;;;1999.90;999.90;;;16.60;99.90;;;;;;4999699;28;21114;-83
2023/05/29 08:28:58;;;;;;;1999.90;999.90;;;16.70;99.90;;;;;;5027885;28;20042;-84
2023/05/29 08:31:25;;;;;;;1999.90;999.90;;;16.70;99.90;;;;;;5010846;28;20067;-81
2023/05/29 08:33:51;;;;;;;1999.90;999.90;;;16.80;99.90;;;;;;5032000;28;20053;-83
2023/05/29 08:36:17;;;;;;;1999.90;999.90;;;16.90;99.90;;;;;;5028802;28;20054;-83
2023/05/29 08:38:43;;;;;;;1999.90;999.90;;;17.00;99.90;;;;;;5045315;28;20048;-83
2023/05/29 08:41:13;;;;;;;1999.90;999.90;;;17.10;99.90;;;;;;5006598;28;20496;-84
2023/05/29 08:43:41;;;;;;;1999.90;999.90;;;17.20;99.90;;;;;;4998461;28;20087;-84
2023/05/29 08:46:07;;;;;;;1999.90;999.90;;;17.30;99.90;;;;;;5011182;28;20068;-84
2023/05/29 08:48:39;;;;;;;1999.90;999.90;;;17.40;99.90;;;;;;5014387;28;20053;-84
2023/05/29 08:51:07;;;;;;;1999.90;999.90;;;17.40;99.90;;;;;;5013129;28;20049;-85
2023/05/29 08:53:33;;;;;;;1999.90;999.90;;;17.50;99.90;;;;;;5034248;28;20595;-83
2023/05/29 08:56:01;;;;;;;1999.90;999.90;;;17.60;99.90;;;;;;5031405;28;20077;-85
2023/05/29 08:58:27;;;;;;;1999.90;999.90;;;18.90;99.90;;;;;;5014808;28;20052;-83
2023/05/29 09:00:52;;;;;;;1999.90;999.90;;;17.80;99.90;;;;;;5005797;28;20478;-83
2023/05/29 09:03:20;;;;;;;1999.90;999.90;;;17.90;99.90;;;;;;5007839;28;20037;-82
2023/05/29 09:05:46;;;;;;;1999.90;999.90;;;17.90;99.90;;;;;;5023513;28;21767;-83
2023/05/29 09:08:12;;;;;;;1999.90;999.90;;;17.80;99.90;;;;;;5012951;28;20088;-85
2023/05/29 09:10:41;;;;;;;1999.90;999.90;;;17.90;99.90;;;;;;5004838;28;20473;-84
2023/05/29 09:13:09;;;;;;;1999.90;999.90;;;17.80;99.90;;;;;;5029557;28;20041;-85
2023/05/29 09:15:35;;;;;;;1999.90;999.90;;;18.00;99.90;;;;;;5012717;28;20521;-83
2023/05/29 09:18:00;;;;;;;1999.90;999.90;;;18.00;99.90;;;;;;5033363;28;20069;-83
2023/05/29 09:20:27;;;;;;;1999.90;999.90;;;18.10;99.90;;;;;;5013059;28;20481;-83
2023/05/29 09:22:54;;;;;;;1999.90;999.90;;;18.10;99.90;;;;;;5013571;28;20103;-82
2023/05/29 09:25:26;;;;;;;1999.90;999.90;;;18.20;99.90;;;;;;5009611;28;20540;-82
2023/05/29 09:28:00;;;;;;;1999.90;999.90;;;17.60;99.90;;;;;;5021697;28;20302;-83
2023/05/29 09:30:52;;;;;;;1999.90;999.90;;;18.40;99.90;;;;;;5008836;28;20053;-85
2023/05/29 09:33:18;;;;;;;1999.90;999.90;;;18.60;99.90;;;;;;4991848;28;20479;-83
2023/05/29 09:35:45;;;;;;;1999.90;524.63;;;18.60;99.90;;;;;;5022969;28;20100;-85
2023/05/29 09:38:17;;;;;;;1999.90;999.90;;;17.70;99.90;;;;;;5006486;28;21636;-85
2023/05/29 09:40:46;;;;;;;1999.90;999.90;;;18.40;99.90;;;;;;5039482;28;20135;-84
2023/05/29 09:43:19;;;;;;;1999.90;999.90;;;18.40;99.90;;;;;;5008836;28;20099;-84
2023/05/29 09:45:46;;;;;;;1999.90;999.90;;;18.50;99.90;;;;;;5018428;28;20402;-83
2023/05/29 09:48:17;;;;;;;1999.90;999.90;;;18.60;99.90;;;;;;5001373;28;20530;-83
2023/05/29 09:50:47;;;;;;;1999.90;999.90;;;18.70;99.90;;;;;;5001601;28;20053;-84
2023/05/29 09:53:17;;;;;;;1999.90;865.20;;;18.80;99.90;;;;;;5006401;28;20368;-84
2023/05/29 09:55:43;;;;;;;1999.90;730.25;;;19.00;99.90;;;;;;5001455;28;20136;-85
2023/05/29 09:58:12;;;;;;;1999.90;999.90;;;19.00;99.90;;;;;;5004487;28;20445;-84
2023/05/29 10:00:39;;;;;;;1999.90;999.90;;;19.30;99.90;;;;;;5003178;28;20088;-83
2023/05/29 10:03:04;;;;;;;1999.90;999.90;;;19.30;99.90;;;;;;5006794;28;20058;-86
2023/05/29 10:05:30;;;;;;;1999.90;517.25;;;19.30;99.90;;;;;;4999833;28;20050;-84
2023/05/29 10:07:56;;;;;;;1999.90;924.65;;;19.40;99.90;;;;;;5004518;28;20099;-84
2023/05/29 10:10:24;;;;;;;1999.90;999.90;;;19.50;99.90;;;;;;5019372;28;20093;-84
2023/05/29 10:12:51;;;;;;;1999.90;843.38;;;19.60;99.90;;;;;;5005310;28;20049;-83
2023/05/29 10:15:19;;;;;;;1999.90;999.90;;;19.70;99.90;;;;;;5004337;28;20042;-84
2023/05/29 10:18:02;;;;;;;1999.90;999.90;;;19.70;99.90;;;;;;4989382;28;20392;-84
2023/05/29 10:20:28;;;;;;;1999.90;999.90;;;19.90;99.90;;;;;;5005878;28;20395;-83
2023/05/29 10:22:59;;;;;;;1958.38;510.83;;;20.00;99.90;;;;;;4986362;28;20048;-84
2023/05/29 10:25:30;;;;;;;1999.90;999.90;;;20.30;99.90;;;;;;4998469;28;20049;-85
2023/05/29 10:27:57;;;;;;;1999.90;999.90;;;20.60;99.90;;;;;;5004370;28;20080;-84
2023/05/29 10:30:58;;;;;;;1999.90;999.90;;;20.70;99.90;;;;;;5005117;28;20057;-84
2023/05/29 10:33:27;;;;;;;1999.90;999.90;;;20.90;99.90;;;;;;4984136;28;20046;-83
2023/05/29 10:36:18;;;;;;;1999.90;999.90;;;20.80;99.90;;;;;;5004808;28;20533;-82
2023/05/29 10:38:45;;;;;;;1999.90;753.13;;;20.80;99.90;;;;;;4986155;28;20144;-83
2023/05/29 10:41:26;;;;;;;1999.90;999.90;;;20.90;99.90;;;;;;5002889;28;20069;-85
2023/05/29 10:43:54;;;;;;;1999.90;999.90;;;21.20;99.90;;;;;;5004289;28;20060;-83
2023/05/29 10:46:20;;;;;;;1999.90;999.90;;;21.40;99.90;;;;;;5003416;28;20085;-84
2023/05/29 10:48:49;;;;;;;1999.90;999.90;;;21.70;99.90;;;;;;5023819;28;20103;-83
2023/05/29 10:51:26;;;;;;;1999.90;999.90;;;22.00;99.90;;;;;;5007839;28;20435;-85
2023/05/29 10:53:52;;;;;;;1999.90;760.35;;;22.40;99.90;;;;;;5007596;28;20050;-85
2023/05/29 10:56:27;;;;;;;1999.90;999.90;;;22.40;99.90;;;;;;5008437;28;20110;-84
2023/05/29 10:58:55;;;;;;;1999.90;999.90;;;22.70;99.90;;;;;;5011407;28;20064;-84
2023/05/29 11:01:23;;;;;;;1999.90;999.90;;;22.90;99.90;;;;;;5008766;28;20124;-84
2023/05/29 11:03:49;;;;;;;;;;;23.30;99.90;;;;;;5008924;28;20124;-83
2023/05/29 11:06:34;;;;;;;1999.90;999.90;;;23.10;99.90;;;;;;5007955;28;20000;-86
2023/05/29 11:09:02;;;;;;;1999.90;999.90;;;23.30;99.90;;;;;;4996405;28;20081;-84
2023/05/29 11:11:28;;;;;;;1999.90;999.90;;;23.40;99.90;;;;;;5004174;28;20160;-85
2023/05/29 11:14:00;;;;;;;1999.90;999.90;;;23.60;99.90;;;;;;5009804;28;20505;-84
2023/05/29 11:16:29;;;;;;;1999.90;999.90;;;24.00;99.90;;;;;;5039352;28;20500;-84
2023/05/29 11:18:55;;;;;;;1999.90;999.90;;;24.40;99.90;;;;;;5006578;28;20054;-85
2023/05/29 11:21:45;;;;;;;1999.90;999.90;;;24.80;99.90;;;;;;5007145;28;20045;-85
2023/05/29 11:24:25;;;;;;;1999.90;999.90;;;25.30;99.90;;;;;;5008780;28;20124;-84
2023/05/29 11:26:53;;;;;;;1999.90;999.90;;;25.60;99.90;;;;;;5005468;28;20120;-84
2023/05/29 11:29:22;;;;;;;1999.90;999.90;;;25.50;99.90;;;;;;5009158;28;20083;-86
2023/05/29 11:31:56;;;;;;;1999.90;999.90;;;25.40;99.90;;;;;;5008350;28;20073;-86
2023/05/29 11:34:23;;;;;;;1999.90;999.90;;;25.40;99.90;;;;;;5007097;28;20219;-86
2023/05/29 11:36:51;;;;;;;1999.90;999.90;;;25.60;99.90;;;;;;4990405;28;20071;-84
2023/05/29 11:39:16;;;;;;;1999.90;999.90;;;25.60;99.90;;;;;;4988134;28;20046;-84
2023/05/29 11:41:42;;;;;;;1999.90;999.90;;;25.40;99.90;;;;;;4992081;28;20056;-83
2023/05/29 11:44:08;;;;;;;1999.90;999.90;;;25.00;99.90;;;;;;5005482;28;20053;-85
2023/05/29 11:46:34;;;;;;;1999.90;999.90;;;24.90;99.90;;;;;;5023757;28;20041;-85
2023/05/29 11:49:00;;;;;;;1999.90;999.90;;;24.80;99.90;;;;;;4991593;28;20142;-84
2023/05/29 11:51:27;;;;;;;1999.90;999.90;;;24.20;99.90;;;;;;5007747;28;20143;-84
2023/05/29 11:53:57;;;;;;;1999.90;999.90;;;23.60;99.90;;;;;;5007261;28;20713;-84
2023/05/29 11:56:27;;;;;;;1999.90;999.90;;;23.90;99.90;;;;;;5009545;28;20042;-85
2023/05/29 11:58:57;;;;;;;1999.90;999.90;;;24.20;99.90;;;;;;5008686;28;20045;-84
2023/05/29 12:01:25;;;;;;;1999.90;999.90;;;24.60;99.90;;;;;;4994455;28;20049;-84
2023/05/29 12:03:51;;;;;;;1999.90;999.90;;;25.20;99.90;;;;;;5008677;28;20053;-84